createdAt,value
2022-08-04T00:00:27.515Z,98692.06
2022-08-04T00:03:19.902Z,98695.38
2022-08-04T00:06:03.750Z,98694.84
2022-08-04T00:08:57.131Z,98699.28
2022-08-04T00:11:30.612Z,98693.97
2022-08-04T00:14:05.165Z,98693.66
2022-08-04T00:16:38.322Z,98689.72
2022-08-04T00:19:18.330Z,98694.97
2022-08-04T00:21:52.650Z,98699.94
2022-08-04T00:24:22.304Z,98691.13
2022-08-04T00:26:49.227Z,98695.25
2022-08-04T00:29:16.443Z,98699.41
2022-08-04T00:31:56.085Z,98702.81
2022-08-04T00:34:27.214Z,98685.19
2022-08-04T00:36:55.562Z,98695.38
2022-08-04T00:39:23.225Z,98715.22
2022-08-04T00:42:11.295Z,98711.59
2022-08-04T00:45:18.851Z,98708.41
2022-08-04T00:48:02.618Z,98708.88
2022-08-04T00:51:24.349Z,98711.44
2022-08-04T00:54:26.653Z,98693.50
2022-08-04T00:57:33.791Z,98695.47
2022-08-04T01:00:13.869Z,98706.69
2022-08-04T01:03:18.695Z,98710.97
2022-08-04T01:05:57.811Z,98714.97
2022-08-04T01:08:36.161Z,98719.25
2022-08-04T01:11:24.740Z,98722.56
2022-08-04T01:14:20.766Z,98717.63
2022-08-04T01:16:58.357Z,98710.91
2022-08-04T01:20:08.345Z,98716.41
2022-08-04T01:22:50.735Z,98716.19
2022-08-04T01:25:44.448Z,98719.03
2022-08-04T01:28:41.122Z,98718.38
2022-08-04T01:31:48.129Z,98704.81
2022-08-04T01:34:17.191Z,98708.34
2022-08-04T01:36:56.206Z,98708.34
2022-08-04T01:39:41.544Z,98689.81
2022-08-04T01:42:31.996Z,98701.16
2022-08-04T01:45:05.642Z,98713.53
2022-08-04T01:47:36.820Z,98707.25
2022-08-04T01:50:14.015Z,98695.34
2022-08-04T01:52:46.501Z,98702.38
2022-08-04T01:55:18.131Z,98698.22
2022-08-04T01:57:52.815Z,98702.16
2022-08-04T02:00:28.832Z,98704.19
2022-08-04T02:02:57.944Z,98695.72
2022-08-04T02:05:27.031Z,98707.34
2022-08-04T02:08:37.438Z,98703.50
2022-08-04T02:11:22.837Z,98691.91
2022-08-04T02:14:41.642Z,98694.41
2022-08-04T02:17:40.529Z,98686.91
2022-08-04T02:20:35.681Z,98677.81
2022-08-04T02:23:08.518Z,98657.06
2022-08-04T02:26:03.146Z,98686.38
2022-08-04T02:29:00.842Z,98690.31
2022-08-04T02:31:33.573Z,98686.41
2022-08-04T02:34:14.029Z,98683.97
2022-08-04T02:36:42.766Z,98681.56
2022-08-04T02:39:12.577Z,98678.63
2022-08-04T02:41:40.779Z,98667.31
2022-08-04T02:44:10.367Z,98661.66
2022-08-04T02:46:39.426Z,98663.44
2022-08-04T02:49:10.920Z,98677.38
2022-08-04T02:51:46.285Z,98658.56
2022-08-04T02:54:31.637Z,98670.63
2022-08-04T02:57:02.297Z,98667.47
2022-08-04T03:00:01.666Z,98677.00
2022-08-04T03:02:45.319Z,98678.28
2022-08-04T03:05:23.833Z,98663.22
2022-08-04T03:08:04.327Z,98670.94
2022-08-04T03:11:32.067Z,98666.84
2022-08-04T03:14:37.332Z,98673.34
2022-08-04T03:17:32.153Z,98677.78
2022-08-04T03:20:27.206Z,98652.94
2022-08-04T03:23:35.619Z,98675.03
2022-08-04T03:26:39.331Z,98677.03
2022-08-04T03:29:47.567Z,98680.59
2022-08-04T03:33:03.214Z,98688.41
2022-08-04T03:36:05.432Z,98688.97
2022-08-04T03:39:11.825Z,98691.88
2022-08-04T03:42:12.121Z,98689.63
2022-08-04T03:45:23.646Z,98692.69
2022-08-04T03:48:29.402Z,98698.09
2022-08-04T03:51:52.301Z,98706.13
2022-08-04T03:54:51.387Z,98699.75
2022-08-04T03:57:39.263Z,98702.81
2022-08-04T04:00:20.923Z,98698.69
2022-08-04T04:03:44.886Z,98701.44
2022-08-04T04:07:26.542Z,98700.06
2022-08-04T04:10:31.128Z,98699.78
2022-08-04T04:13:33.371Z,98699.22
2022-08-04T04:16:27.493Z,98699.25
2022-08-04T04:19:00.700Z,98704.50
2022-08-04T04:21:52.039Z,98701.44
2022-08-04T04:24:52.920Z,98695.50
2022-08-04T04:28:44.993Z,98708.38
2022-08-04T04:31:21.178Z,98706.72
2022-08-04T04:34:09.776Z,98700.94
2022-08-04T04:37:10.854Z,98688.47
2022-08-04T04:40:03.542Z,98701.75
2022-08-04T04:42:59.290Z,98716.97
2022-08-04T04:46:00.571Z,98714.06
2022-08-04T04:48:51.622Z,98704.22
2022-08-04T04:51:43.402Z,98710.47
2022-08-04T04:54:38.867Z,98715.03
2022-08-04T04:57:11.841Z,98715.59
2022-08-04T04:59:57.153Z,98722.06
2022-08-04T05:02:50.329Z,98725.09
2022-08-04T05:06:15.141Z,98722.91
2022-08-04T05:09:25.475Z,98726.22
2022-08-04T05:14:22.838Z,98725.94
2022-08-04T05:15:07.971Z,98720.53
2022-08-04T05:17:40.419Z,98730.13
2022-08-04T05:20:22.127Z,98721.94
2022-08-04T05:23:01.625Z,98722.19
2022-08-04T05:25:58.474Z,98723.72
2022-08-04T05:28:36.596Z,98713.31
2022-08-04T05:31:14.300Z,98723.31
2022-08-04T05:33:54.722Z,98729.53
2022-08-04T05:36:41.047Z,98706.38
2022-08-04T05:39:15.799Z,98714.44
2022-08-04T05:41:47.832Z,98700.56
2022-08-04T05:44:23.731Z,98721.56
2022-08-04T05:46:56.330Z,98719.63
2022-08-04T05:49:29.755Z,98708.00
2022-08-04T05:52:01.351Z,98710.44
2022-08-04T05:54:31.066Z,98718.91
2022-08-04T05:56:59.154Z,98719.44
2022-08-04T05:59:27.896Z,98725.09
2022-08-04T06:01:58.259Z,98733.09
2022-08-04T06:04:37.539Z,98736.00
2022-08-04T06:07:05.307Z,98727.66
2022-08-04T06:09:32.572Z,98723.75
2022-08-04T06:12:04.964Z,98719.44
2022-08-04T06:14:38.068Z,98727.72
2022-08-04T06:17:52.117Z,98716.09
2022-08-04T06:20:00.032Z,98723.81
2022-08-04T06:22:34.443Z,98727.97
2022-08-04T06:25:03.992Z,98717.44
2022-08-04T06:27:33.371Z,98720.28
2022-08-04T06:30:02.708Z,98713.00
2022-08-04T06:32:41.663Z,98726.41
2022-08-04T06:35:10.028Z,98724.53
2022-08-04T06:37:42.086Z,98718.81
2022-08-04T06:40:30.869Z,98721.66
2022-08-04T06:43:05.198Z,98713.91
2022-08-04T06:45:36.180Z,98715.97
2022-08-04T06:48:05.623Z,98720.47
2022-08-04T06:51:27.841Z,98726.28
2022-08-04T06:53:26.269Z,98725.84
2022-08-04T06:55:54.583Z,98730.66
2022-08-04T06:58:23.291Z,98723.63
2022-08-04T07:00:52.007Z,98728.91
2022-08-04T07:03:19.816Z,98718.34
2022-08-04T07:05:52.017Z,98726.09
2022-08-04T07:08:20.006Z,98725.78
2022-08-04T07:10:49.530Z,98717.03
2022-08-04T07:13:16.936Z,98711.59
2022-08-04T07:15:45.897Z,98704.34
2022-08-04T07:18:12.845Z,98703.06
2022-08-04T07:20:47.318Z,98721.44
2022-08-04T07:23:21.297Z,98725.44
2022-08-04T07:26:11.253Z,98715.56
2022-08-04T07:28:41.737Z,98703.00
2022-08-04T07:31:32.913Z,98700.91
2022-08-04T07:34:16.901Z,98694.97
2022-08-04T07:36:55.192Z,98716.50
2022-08-04T07:39:27.970Z,98717.84
2022-08-04T07:41:58.677Z,98700.66
2022-08-04T07:44:25.586Z,98695.88
2022-08-04T07:46:52.973Z,98702.19
2022-08-04T07:49:55.216Z,98689.97
2022-08-04T07:52:08.106Z,98694.22
2022-08-04T07:54:35.948Z,98696.22
2022-08-04T07:57:03.882Z,98689.09
2022-08-04T07:59:30.927Z,98697.22
2022-08-04T08:02:01.266Z,98690.28
2022-08-04T08:04:30.054Z,98682.56
2022-08-04T08:06:58.864Z,98690.38
2022-08-04T08:09:25.699Z,98680.59
2022-08-04T08:12:35.371Z,98665.09
2022-08-04T08:14:41.358Z,98681.31
2022-08-04T08:17:08.271Z,98680.69
2022-08-04T08:19:36.256Z,98672.59
2022-08-04T08:22:04.261Z,98679.41
2022-08-04T08:24:36.068Z,98673.56
2022-08-04T08:27:04.787Z,98677.34
2022-08-04T08:29:34.962Z,98674.88
2022-08-04T08:32:08.273Z,98674.91
2022-08-04T08:34:37.800Z,98666.78
2022-08-04T08:37:33.694Z,98665.78
2022-08-04T08:40:40.111Z,98668.09
2022-08-04T08:44:07.203Z,98661.66
2022-08-04T08:46:48.815Z,98668.78
2022-08-04T08:50:04.120Z,98671.75
2022-08-04T08:53:01.104Z,98662.50
2022-08-04T08:55:49.520Z,98673.69
2022-08-04T08:58:34.855Z,98676.00
2022-08-04T09:01:50.342Z,98661.94
2022-08-04T09:04:40.180Z,98663.75
2022-08-04T09:07:43.552Z,98679.78
2022-08-04T09:10:20.712Z,98673.31
2022-08-04T09:12:54.061Z,98672.13
2022-08-04T09:15:38.864Z,98675.44
2022-08-04T09:18:28.211Z,98655.59
2022-08-04T09:21:16.993Z,98677.91
2022-08-04T09:24:35.568Z,98667.63
2022-08-04T09:27:21.240Z,98658.53
2022-08-04T09:30:10.908Z,98661.91
2022-08-04T09:33:04.626Z,98671.25
2022-08-04T09:36:06.920Z,98655.09
2022-08-04T09:38:52.642Z,98659.72
2022-08-04T09:41:56.875Z,98662.97
2022-08-04T09:45:07.782Z,98661.31
2022-08-04T09:47:58.112Z,98648.63
2022-08-04T09:50:38.588Z,98652.50
2022-08-04T09:53:49.955Z,98647.84
2022-08-04T09:56:54.058Z,98655.81
2022-08-04T09:59:58.754Z,98643.06
2022-08-04T10:02:32.098Z,98636.16
2022-08-04T10:05:04.251Z,98643.00
2022-08-04T10:07:59.523Z,98630.44
2022-08-04T10:11:09.871Z,98630.63
2022-08-04T10:13:52.816Z,98618.56
2022-08-04T10:16:47.500Z,98625.91
2022-08-04T10:19:28.678Z,98618.44
2022-08-04T10:22:30.044Z,98601.19
2022-08-04T10:25:44.446Z,98609.50
2022-08-04T10:28:06.502Z,98602.88
2022-08-04T10:30:37.169Z,98600.03
2022-08-04T10:33:39.441Z,98612.25
2022-08-04T10:36:18.563Z,98597.16
2022-08-04T10:39:13.934Z,98606.69
2022-08-04T10:42:17.109Z,98598.59
2022-08-04T10:45:20.027Z,98602.38
2022-08-04T10:48:13.959Z,98588.91
2022-08-04T10:50:55.423Z,98582.34
2022-08-04T10:53:25.754Z,98595.63
2022-08-04T10:56:30.100Z,98591.22
2022-08-04T10:59:10.670Z,98578.91
2022-08-04T11:02:00.008Z,98584.00
2022-08-04T11:04:45.304Z,98593.06
2022-08-04T11:07:13.704Z,98588.56
2022-08-04T11:09:42.995Z,98583.03
2022-08-04T11:12:26.097Z,98583.00
2022-08-04T11:15:07.387Z,98591.25
2022-08-04T11:18:17.059Z,98577.31
2022-08-04T11:21:02.450Z,98582.03
2022-08-04T11:23:35.087Z,98574.09
2022-08-04T11:26:24.741Z,98579.88
2022-08-04T11:29:18.292Z,98578.78
2022-08-04T11:31:51.874Z,98573.97
2022-08-04T11:34:27.538Z,98566.94
2022-08-04T11:37:50.414Z,98574.66
2022-08-04T11:40:24.927Z,98570.50
2022-08-04T11:43:06.502Z,98570.41
2022-08-04T11:46:00.592Z,98557.31
2022-08-04T11:48:41.813Z,98542.25
2022-08-04T11:51:09.393Z,98557.84
2022-08-04T11:53:39.916Z,98562.50
2022-08-04T11:56:13.602Z,98555.88
2022-08-04T11:59:01.015Z,98564.47
2022-08-04T12:01:27.871Z,98564.81
2022-08-04T12:04:15.810Z,98548.81
2022-08-04T12:07:21.776Z,98549.25
2022-08-04T12:10:15.245Z,98544.41
2022-08-04T12:13:46.619Z,98542.16
2022-08-04T12:16:18.615Z,98532.97
2022-08-04T12:19:07.861Z,98525.16
2022-08-04T12:21:50.308Z,98533.81
2022-08-04T12:24:44.219Z,98529.06
2022-08-04T12:27:33.506Z,98533.09
2022-08-04T12:30:57.178Z,98525.06
2022-08-04T12:33:01.325Z,98517.19
2022-08-04T12:35:38.663Z,98520.03
2022-08-04T12:38:29.267Z,98516.00
2022-08-04T12:40:58.507Z,98528.09
2022-08-04T12:43:35.380Z,98526.00
2022-08-04T12:46:06.921Z,98517.84
2022-08-04T12:48:37.629Z,98512.44
2022-08-04T12:52:06.178Z,98502.56
2022-08-04T12:53:57.202Z,98506.88
2022-08-04T12:56:28.542Z,98501.06
2022-08-04T12:59:05.555Z,98473.66
2022-08-04T13:02:08.013Z,98499.19
2022-08-04T13:04:28.897Z,98491.59
2022-08-04T13:07:09.716Z,98494.63
2022-08-04T13:09:38.078Z,98503.28
2022-08-04T13:12:18.969Z,98490.69
2022-08-04T13:14:52.892Z,98485.81
2022-08-04T13:17:20.507Z,98487.59
2022-08-04T13:19:55.063Z,98488.16
2022-08-04T13:22:30.374Z,98470.72
2022-08-04T13:26:40.554Z,98480.09
2022-08-04T13:27:55.504Z,98480.22
2022-08-04T13:30:26.993Z,98460.47
2022-08-04T13:33:01.412Z,98468.72
2022-08-04T13:35:56.018Z,98468.63
2022-08-04T13:38:24.001Z,98448.38
2022-08-04T13:40:52.653Z,98462.28
2022-08-04T13:44:15.534Z,98460.97
2022-08-04T13:46:50.718Z,98462.56
2022-08-04T13:49:54.116Z,98460.22
2022-08-04T13:52:12.082Z,98452.22
2022-08-04T13:54:45.302Z,98456.66
2022-08-04T13:57:27.262Z,98436.06
2022-08-04T14:00:02.241Z,98450.31
2022-08-04T14:02:50.512Z,98457.00
2022-08-04T14:05:28.782Z,98449.03
2022-08-04T14:08:09.322Z,98443.56
2022-08-04T14:10:36.977Z,98445.84
2022-08-04T14:13:05.746Z,98433.22
2022-08-04T14:16:02.046Z,98444.09
2022-08-04T14:18:32.666Z,98441.84
2022-08-04T14:21:08.232Z,98419.56
2022-08-04T14:23:56.786Z,98435.56
2022-08-04T14:26:33.543Z,98430.78
2022-08-04T14:29:27.845Z,98432.69
2022-08-04T14:32:22.836Z,98427.16
2022-08-04T14:34:52.837Z,98430.47
2022-08-04T14:37:22.370Z,98422.41
2022-08-04T14:40:08.661Z,98425.91
2022-08-04T14:42:54.577Z,98415.63
2022-08-04T14:45:54.703Z,98402.78
2022-08-04T14:48:22.322Z,98423.47
2022-08-04T14:50:50.595Z,98420.09
2022-08-04T14:53:30.871Z,98419.97
2022-08-04T14:56:00.041Z,98423.22
2022-08-04T14:58:38.845Z,98408.75
2022-08-04T15:01:12.770Z,98405.00
2022-08-04T15:03:49.650Z,98417.28
2022-08-04T15:06:23.453Z,98404.19
2022-08-04T15:08:52.291Z,98407.63
2022-08-04T15:11:23.519Z,98402.25
2022-08-04T15:13:55.545Z,98417.38
2022-08-04T15:16:26.154Z,98404.25
2022-08-04T15:18:54.742Z,98391.41
2022-08-04T15:21:25.901Z,98406.94
2022-08-04T15:23:53.005Z,98410.38
2022-08-04T15:26:49.555Z,98403.06
2022-08-04T15:29:26.398Z,98402.28
2022-08-04T15:32:06.307Z,98393.75
2022-08-04T15:34:51.467Z,98394.09
2022-08-04T15:37:28.766Z,98401.72
2022-08-04T15:40:07.454Z,98396.59
2022-08-04T15:42:46.448Z,98400.59
2022-08-04T15:45:23.648Z,98387.94
2022-08-04T15:48:23.278Z,98389.00
2022-08-04T15:50:56.114Z,98397.06
2022-08-04T15:53:23.238Z,98379.41
2022-08-04T15:56:27.824Z,98388.63
2022-08-04T15:58:55.623Z,98387.94
2022-08-04T16:01:23.321Z,98382.78
2022-08-04T16:03:58.640Z,98389.22
2022-08-04T16:06:29.533Z,98387.88
2022-08-04T16:09:02.218Z,98383.56
2022-08-04T16:11:31.654Z,98381.75
2022-08-04T16:13:58.981Z,98383.28
2022-08-04T16:16:47.928Z,98370.94
2022-08-04T16:19:35.306Z,98381.88
2022-08-04T16:22:04.466Z,98376.00
2022-08-04T16:24:40.670Z,98369.44
2022-08-04T16:27:09.867Z,98372.53
2022-08-04T16:29:47.868Z,98371.19
2022-08-04T16:32:22.624Z,98366.88
2022-08-04T16:35:04.143Z,98362.13
2022-08-04T16:37:39.007Z,98363.59
2022-08-04T16:40:36.956Z,98359.75
2022-08-04T16:43:18.351Z,98350.06
2022-08-04T16:46:03.621Z,98358.19
2022-08-04T16:48:35.815Z,98362.84
2022-08-04T16:51:09.758Z,98346.03
2022-08-04T16:54:03.710Z,98353.50
2022-08-04T16:56:34.799Z,98337.34
2022-08-04T16:59:11.090Z,98347.06
2022-08-04T17:01:49.005Z,98347.63
2022-08-04T17:04:16.414Z,98352.44
2022-08-04T17:06:46.508Z,98346.16
2022-08-04T17:09:19.525Z,98320.47
2022-08-04T17:11:48.264Z,98337.00
2022-08-04T17:14:23.401Z,98344.25
2022-08-04T17:16:51.087Z,98340.56
2022-08-04T17:19:23.932Z,98336.31
2022-08-04T17:22:06.017Z,98343.34
2022-08-04T17:24:40.429Z,98335.28
2022-08-04T17:28:20.070Z,98346.72
2022-08-04T17:29:54.484Z,98340.16
2022-08-04T17:32:23.305Z,98343.84
2022-08-04T17:34:57.288Z,98337.66
2022-08-04T17:37:40.253Z,98334.56
2022-08-04T17:40:18.467Z,98323.63
2022-08-04T17:46:28.526Z,98317.28
2022-08-04T17:49:20.866Z,98336.72
2022-08-04T17:52:04.862Z,98345.66
2022-08-04T17:54:39.539Z,98341.13
2022-08-04T17:57:19.967Z,98326.03
2022-08-04T18:00:04.447Z,98318.84
2022-08-04T18:02:35.035Z,98351.06
2022-08-04T18:05:06.381Z,98341.47
2022-08-04T18:08:38.802Z,98348.94
2022-08-04T18:13:31.265Z,98338.09
2022-08-04T18:16:21.991Z,98343.31
2022-08-04T18:19:14.572Z,98356.19
2022-08-04T18:21:46.463Z,98356.97
2022-08-04T18:24:28.555Z,98352.19
2022-08-04T18:27:06.671Z,98357.72
2022-08-04T18:29:39.056Z,98360.78
2022-08-04T18:32:09.123Z,98358.06
2022-08-04T18:34:40.914Z,98349.91
2022-08-04T18:38:05.297Z,98357.84
2022-08-04T18:40:28.085Z,98347.59
2022-08-04T18:42:57.818Z,98346.66
2022-08-04T18:45:34.479Z,98343.69
2022-08-04T18:48:14.482Z,98357.91
2022-08-04T18:51:09.646Z,98355.16
2022-08-04T18:53:35.081Z,98355.66
2022-08-04T18:56:06.396Z,98340.91
2022-08-04T18:58:47.242Z,98371.78
2022-08-04T19:01:15.424Z,98372.25
2022-08-04T19:03:44.641Z,98348.53
2022-08-04T19:06:12.499Z,98369.91
2022-08-04T19:08:42.293Z,98374.47
2022-08-04T19:11:38.394Z,98370.66
2022-08-04T19:13:58.473Z,98370.84
2022-08-04T19:16:28.411Z,98386.72
2022-08-04T19:19:00.338Z,98392.72
2022-08-04T19:22:00.537Z,98398.09
2022-08-04T19:24:32.724Z,98387.50
2022-08-04T19:27:06.793Z,98409.66
2022-08-04T19:29:37.951Z,98410.09
2022-08-04T19:32:13.800Z,98405.19
2022-08-04T19:34:45.805Z,98417.50
2022-08-04T19:38:01.400Z,98422.84
2022-08-04T19:40:09.617Z,98425.91
2022-08-04T19:42:37.019Z,98420.41
2022-08-04T19:45:05.600Z,98419.59
2022-08-04T19:48:16.168Z,98421.19
2022-08-04T19:50:19.635Z,98436.78
2022-08-04T19:52:51.904Z,98441.28
2022-08-04T19:55:22.943Z,98447.63
2022-08-04T19:58:08.922Z,98453.97
2022-08-04T20:00:39.104Z,98440.41
2022-08-04T20:03:11.346Z,98430.28
2022-08-04T20:08:28.491Z,98438.69
2022-08-04T20:10:57.769Z,98440.72
2022-08-04T20:13:37.427Z,98442.53
2022-08-04T20:16:29.676Z,98452.97
2022-08-04T20:19:08.092Z,98456.81
2022-08-04T20:21:55.389Z,98449.19
2022-08-04T20:24:40.155Z,98445.06
2022-08-04T20:27:17.379Z,98461.06
2022-08-04T20:29:51.161Z,98462.69
2022-08-04T20:32:27.302Z,98457.25
2022-08-04T20:34:56.693Z,98444.91
2022-08-04T20:37:56.985Z,98464.16
2022-08-04T20:40:22.974Z,98446.47
2022-08-04T20:42:54.219Z,98456.44
2022-08-04T20:48:12.149Z,98463.88
2022-08-04T20:50:39.517Z,98459.31
2022-08-04T20:53:17.104Z,98464.59
2022-08-04T20:55:55.255Z,98444.06
2022-08-04T21:01:13.234Z,98461.63
2022-08-04T21:04:00.969Z,98464.28
2022-08-04T21:06:28.086Z,98451.53
2022-08-04T21:08:57.264Z,98456.22
2022-08-04T21:11:24.912Z,98445.47
2022-08-04T21:14:00.116Z,98451.63
2022-08-04T21:16:55.187Z,98443.66
2022-08-04T21:19:14.160Z,98447.50
2022-08-04T21:21:42.485Z,98445.22
2022-08-04T21:24:09.779Z,98448.28
2022-08-04T21:26:37.560Z,98440.34
2022-08-04T21:29:05.905Z,98439.34
2022-08-04T21:31:50.052Z,98459.84
2022-08-04T21:34:38.995Z,98455.63
2022-08-04T21:37:04.555Z,98463.28
2022-08-04T21:39:32.740Z,98454.38
2022-08-04T21:42:28.152Z,98461.06
2022-08-04T21:44:58.089Z,98460.81
2022-08-04T21:47:25.145Z,98458.91
2022-08-04T21:49:55.892Z,98447.72
2022-08-04T21:52:23.026Z,98468.63
2022-08-04T21:54:54.456Z,98458.09
2022-08-04T21:57:22.592Z,98455.75
2022-08-04T21:59:52.119Z,98450.09
2022-08-04T22:02:19.040Z,98448.44
2022-08-04T22:04:48.166Z,98465.00
2022-08-04T22:07:22.989Z,98457.94
2022-08-04T22:10:02.364Z,98457.13
2022-08-04T22:12:30.486Z,98458.84
2022-08-04T22:15:00.767Z,98464.53
2022-08-04T22:17:35.261Z,98460.44
2022-08-04T22:20:03.632Z,98461.97
2022-08-04T22:22:35.150Z,98470.50
2022-08-04T22:28:00.932Z,98466.63
2022-08-04T22:30:36.414Z,98466.97
2022-08-04T22:33:07.742Z,98459.56
2022-08-04T22:35:49.457Z,98446.19
2022-08-04T22:38:24.182Z,98461.84
2022-08-04T22:41:01.623Z,98459.19
2022-08-04T22:43:31.750Z,98443.91
2022-08-04T22:46:06.388Z,98451.78
2022-08-04T22:48:38.597Z,98445.91
2022-08-04T22:51:07.471Z,98448.00
2022-08-04T22:53:35.864Z,98460.13
2022-08-04T22:56:09.278Z,98437.00
2022-08-04T22:58:45.311Z,98443.03
2022-08-04T23:01:18.056Z,98447.69
2022-08-04T23:03:51.141Z,98445.09
2022-08-04T23:06:24.210Z,98458.31
2022-08-04T23:08:51.910Z,98439.69
2022-08-04T23:11:18.787Z,98446.78
2022-08-04T23:13:45.645Z,98443.47
2022-08-04T23:16:14.150Z,98453.06
2022-08-04T23:18:42.379Z,98444.53
2022-08-04T23:21:15.272Z,98440.94
2022-08-04T23:23:45.636Z,98450.47
2022-08-04T23:26:27.708Z,98455.13
2022-08-04T23:28:58.160Z,98449.19
2022-08-04T23:31:36.647Z,98448.25
2022-08-04T23:34:08.587Z,98452.91
2022-08-04T23:36:35.459Z,98432.16
2022-08-04T23:39:06.212Z,98459.44
2022-08-04T23:41:53.348Z,98452.97
2022-08-04T23:44:24.838Z,98455.31
2022-08-04T23:47:01.182Z,98463.44
2022-08-04T23:49:43.606Z,98452.41
2022-08-04T23:52:27.593Z,98454.19
2022-08-04T23:54:58.221Z,98438.22
2022-08-04T23:58:02.409Z,98455.72
